createdAt,value
2019-02-25T00:00:18.261Z,35.37
2019-02-25T00:01:17.756Z,35.38
2019-02-25T00:02:19.111Z,35.39
2019-02-25T00:03:17.625Z,35.36
2019-02-25T00:04:17.855Z,35.37
2019-02-25T00:05:17.468Z,35.36
2019-02-25T00:06:17.207Z,35.37
2019-02-25T00:07:17.983Z,35.38
2019-02-25T00:08:17.917Z,35.43
2019-02-25T00:09:17.436Z,35.35
2019-02-25T00:10:17.340Z,35.41
2019-02-25T00:11:17.959Z,35.34
2019-02-25T00:12:17.314Z,35.34
2019-02-25T00:13:17.468Z,35.35
2019-02-25T00:14:17.964Z,35.37
2019-02-25T00:15:17.330Z,35.34
2019-02-25T00:16:17.483Z,35.39
2019-02-25T00:17:17.435Z,35.35
2019-02-25T00:18:17.679Z,35.33
2019-02-25T00:19:17.682Z,35.38
2019-02-25T00:20:17.477Z,35.4
2019-02-25T00:21:17.420Z,35.36
2019-02-25T00:22:17.475Z,35.39
2019-02-25T00:23:17.453Z,35.39
2019-02-25T00:24:19.038Z,35.35
2019-02-25T00:25:17.919Z,35.32
2019-02-25T00:26:17.101Z,35.39
2019-02-25T00:27:17.630Z,35.42
2019-02-25T00:28:17.285Z,35.4
2019-02-25T00:29:17.845Z,35.4
2019-02-25T00:30:17.862Z,35.38
2019-02-25T00:31:17.460Z,35.39
2019-02-25T00:32:18.777Z,35.36
2019-02-25T00:33:18.161Z,35.38
2019-02-25T00:34:17.670Z,35.4
2019-02-25T00:35:18.393Z,35.37
2019-02-25T00:36:17.665Z,35.42
2019-02-25T00:37:19.178Z,35.41
2019-02-25T00:38:17.418Z,35.4
2019-02-25T00:39:17.453Z,35.37
2019-02-25T00:40:17.510Z,35.38
2019-02-25T00:41:17.093Z,35.42
2019-02-25T00:42:17.272Z,35.39
2019-02-25T00:43:17.351Z,35.36
2019-02-25T00:44:17.333Z,35.42
2019-02-25T00:45:18.096Z,35.37
2019-02-25T00:46:17.340Z,35.42
2019-02-25T00:47:17.129Z,35.38
2019-02-25T00:48:17.281Z,35.39
2019-02-25T00:49:17.464Z,35.4
2019-02-25T00:50:17.480Z,35.39
2019-02-25T00:51:17.935Z,35.42
2019-02-25T00:52:17.280Z,35.42
2019-02-25T00:53:17.330Z,35.42
2019-02-25T00:54:17.207Z,35.43
2019-02-25T00:55:17.329Z,35.39
2019-02-25T00:56:17.259Z,35.44
2019-02-25T00:57:18.058Z,35.34
2019-02-25T00:58:17.454Z,35.44
2019-02-25T00:59:17.316Z,35.39
2019-02-25T01:00:17.359Z,35.4
2019-02-25T01:01:17.468Z,35.39
2019-02-25T01:02:17.300Z,35.39
2019-02-25T01:03:17.499Z,35.39
2019-02-25T01:04:17.166Z,35.36
2019-02-25T01:05:17.175Z,35.38
2019-02-25T01:06:17.042Z,35.41
2019-02-25T01:07:17.901Z,35.36
2019-02-25T01:08:17.333Z,35.36
2019-02-25T01:09:16.995Z,35.36
2019-02-25T01:10:17.542Z,35.37
2019-02-25T01:11:17.444Z,35.36
2019-02-25T01:12:17.701Z,35.37
2019-02-25T01:13:18.074Z,35.38
2019-02-25T01:14:17.117Z,35.39
2019-02-25T01:15:17.205Z,35.34
2019-02-25T01:16:17.494Z,35.4
2019-02-25T01:17:17.053Z,35.39
2019-02-25T01:18:17.188Z,35.33
2019-02-25T01:19:17.587Z,35.38
2019-02-25T01:20:17.479Z,35.36
2019-02-25T01:21:18.126Z,35.36
2019-02-25T01:22:17.704Z,35.4
2019-02-25T01:23:17.150Z,35.32
2019-02-25T01:24:17.598Z,35.4
2019-02-25T01:25:17.636Z,35.34
2019-02-25T01:26:17.665Z,35.34
2019-02-25T01:27:17.239Z,35.35
2019-02-25T01:28:17.362Z,35.34
2019-02-25T01:29:17.632Z,35.34
2019-02-25T01:30:17.462Z,35.36
2019-02-25T01:31:16.952Z,35.38
2019-02-25T01:32:17.476Z,35.4
2019-02-25T01:33:19.108Z,35.37
2019-02-25T01:34:18.582Z,35.4
2019-02-25T01:35:19.089Z,35.36
2019-02-25T01:36:17.155Z,35.37
2019-02-25T01:37:16.996Z,35.37
2019-02-25T01:38:17.154Z,35.39
2019-02-25T01:39:17.010Z,35.36
2019-02-25T01:40:17.426Z,35.36
2019-02-25T01:41:17.318Z,35.35
2019-02-25T01:42:18.254Z,35.39
2019-02-25T01:43:19.113Z,35.4
2019-02-25T01:44:16.925Z,35.4
2019-02-25T01:45:17.306Z,35.38
2019-02-25T01:46:16.998Z,35.35
2019-02-25T01:47:17.350Z,35.34
2019-02-25T01:48:17.321Z,35.34
2019-02-25T01:49:16.964Z,35.34
2019-02-25T01:50:17.307Z,35.38
2019-02-25T01:51:17.392Z,35.38
2019-02-25T01:52:17.094Z,35.36
2019-02-25T01:53:17.226Z,35.39
2019-02-25T01:54:17.255Z,35.38
2019-02-25T01:55:17.274Z,35.33
2019-02-25T01:56:18.409Z,35.36
2019-02-25T01:57:17.446Z,35.38
2019-02-25T01:58:17.126Z,35.39
2019-02-25T01:59:17.128Z,35.39
2019-02-25T02:00:17.666Z,35.34
2019-02-25T02:01:17.389Z,35.34
2019-02-25T02:02:17.378Z,35.35
2019-02-25T02:03:17.380Z,35.37
2019-02-25T02:04:17.502Z,35.38
2019-02-25T02:05:17.600Z,35.37
2019-02-25T02:06:17.325Z,35.33
2019-02-25T02:07:17.469Z,35.35
2019-02-25T02:08:17.746Z,35.36
2019-02-25T02:09:17.242Z,35.37
2019-02-25T02:10:17.336Z,35.36
2019-02-25T02:11:17.434Z,35.34
2019-02-25T02:12:17.255Z,35.38
2019-02-25T02:13:17.457Z,35.37
2019-02-25T02:14:17.037Z,35.39
2019-02-25T02:15:17.387Z,35.39
2019-02-25T02:16:17.437Z,35.36
2019-02-25T02:17:18.951Z,35.37
2019-02-25T02:18:18.085Z,35.31
2019-02-25T02:19:17.430Z,35.36
2019-02-25T02:20:17.287Z,35.34
2019-02-25T02:21:17.351Z,35.36
2019-02-25T02:22:17.535Z,35.37
2019-02-25T02:23:17.235Z,35.39
2019-02-25T02:24:19.094Z,35.37
2019-02-25T02:25:17.259Z,35.37
2019-02-25T02:26:17.161Z,35.35
2019-02-25T02:27:17.240Z,35.36
2019-02-25T02:28:17.136Z,35.38
2019-02-25T02:29:17.078Z,35.35
2019-02-25T02:30:17.468Z,35.35
2019-02-25T02:31:17.680Z,35.33
2019-02-25T02:32:17.313Z,35.41
2019-02-25T02:33:19.057Z,35.37
2019-02-25T02:34:17.251Z,35.39
2019-02-25T02:35:17.279Z,35.32
2019-02-25T02:36:17.256Z,35.36
2019-02-25T02:37:18.899Z,35.37
2019-02-25T02:38:17.114Z,35.34
2019-02-25T02:39:19.103Z,35.34
2019-02-25T02:40:17.555Z,35.39
2019-02-25T02:41:17.309Z,35.39
2019-02-25T02:42:17.434Z,35.35
2019-02-25T02:43:17.272Z,35.38
2019-02-25T02:44:17.461Z,35.37
2019-02-25T02:45:17.210Z,35.38
2019-02-25T02:46:17.215Z,35.38
2019-02-25T02:47:19.055Z,35.38
2019-02-25T02:48:17.107Z,35.37
2019-02-25T02:49:17.433Z,35.38
2019-02-25T02:50:17.657Z,35.37
2019-02-25T02:51:17.079Z,35.37
2019-02-25T02:52:17.073Z,35.35
2019-02-25T02:53:17.347Z,35.36
2019-02-25T02:54:17.704Z,35.39
2019-02-25T02:55:17.154Z,35.39
2019-02-25T02:56:17.199Z,35.37
2019-02-25T02:57:17.674Z,35.36
2019-02-25T02:58:17.065Z,35.36
2019-02-25T02:59:17.382Z,35.39
2019-02-25T03:00:17.180Z,35.41
2019-02-25T03:01:18.211Z,35.38
2019-02-25T03:02:18.023Z,35.36
2019-02-25T03:03:17.138Z,35.37
2019-02-25T03:04:17.725Z,35.37
2019-02-25T03:05:17.340Z,35.37
2019-02-25T03:06:19.012Z,35.38
2019-02-25T03:07:18.994Z,35.37
2019-02-25T03:08:17.065Z,35.32
2019-02-25T03:09:17.057Z,35.38
2019-02-25T03:10:17.296Z,35.37
2019-02-25T03:11:17.253Z,35.35
2019-02-25T03:12:17.307Z,35.37
2019-02-25T03:13:17.327Z,35.39
2019-02-25T03:14:17.379Z,35.38
2019-02-25T03:15:17.603Z,35.37
2019-02-25T03:16:17.142Z,35.38
2019-02-25T03:17:17.420Z,35.35
2019-02-25T03:18:17.159Z,35.3
2019-02-25T03:19:17.234Z,35.32
2019-02-25T03:20:17.332Z,35.4
2019-02-25T03:21:17.679Z,35.39
2019-02-25T03:22:17.557Z,35.37
2019-02-25T03:23:18.970Z,35.34
2019-02-25T03:24:17.866Z,35.36
2019-02-25T03:25:17.516Z,35.34
2019-02-25T03:26:17.087Z,35.38
2019-02-25T03:27:17.382Z,35.35
2019-02-25T03:28:17.469Z,35.38
2019-02-25T03:29:17.584Z,35.33
2019-02-25T03:30:17.001Z,35.34
2019-02-25T03:31:17.103Z,35.35
2019-02-25T03:32:17.711Z,35.31
2019-02-25T03:33:16.871Z,35.35
2019-02-25T03:34:17.184Z,35.34
2019-02-25T03:35:17.528Z,35.32
2019-02-25T03:36:17.256Z,35.35
2019-02-25T03:37:17.049Z,35.36
2019-02-25T03:38:18.382Z,35.31
2019-02-25T03:39:16.930Z,35.3
2019-02-25T03:40:17.487Z,35.32
2019-02-25T03:41:17.073Z,35.32
2019-02-25T03:42:17.303Z,35.36
2019-02-25T03:43:17.460Z,35.37
2019-02-25T03:44:17.305Z,35.33
2019-02-25T03:45:18.020Z,35.36
2019-02-25T03:46:17.236Z,35.39
2019-02-25T03:47:17.632Z,35.34
2019-02-25T03:48:17.011Z,35.34
2019-02-25T03:49:17.397Z,35.35
2019-02-25T03:50:17.284Z,35.31
2019-02-25T03:51:17.283Z,35.36
2019-02-25T03:52:17.343Z,35.36
2019-02-25T03:53:17.976Z,35.33
2019-02-25T03:54:17.470Z,35.31
2019-02-25T03:55:19.131Z,35.34
2019-02-25T03:56:17.122Z,35.31
2019-02-25T03:57:17.116Z,35.28
2019-02-25T03:58:17.250Z,35.34
2019-02-25T03:59:17.009Z,35.38
2019-02-25T04:00:17.348Z,35.36
2019-02-25T04:01:18.094Z,35.37
2019-02-25T04:02:17.209Z,35.36
2019-02-25T04:03:17.614Z,35.36
2019-02-25T04:04:17.435Z,35.29
2019-02-25T04:05:17.235Z,35.38
2019-02-25T04:06:18.253Z,35.39
2019-02-25T04:07:17.975Z,35.37
2019-02-25T04:08:17.389Z,35.34
2019-02-25T04:09:18.370Z,35.31
2019-02-25T04:10:17.471Z,35.33
2019-02-25T04:11:17.997Z,35.4
2019-02-25T04:12:17.417Z,35.41
2019-02-25T04:13:17.319Z,35.29
2019-02-25T04:14:18.984Z,35.3
2019-02-25T04:15:17.125Z,35.34
2019-02-25T04:16:17.146Z,35.31
2019-02-25T04:17:17.267Z,35.38
2019-02-25T04:18:17.449Z,35.31
2019-02-25T04:19:17.071Z,35.28
2019-02-25T04:20:17.270Z,35.36
2019-02-25T04:21:17.225Z,35.41
2019-02-25T04:22:17.071Z,35.34
2019-02-25T04:23:17.484Z,35.32
2019-02-25T04:24:17.413Z,35.35
2019-02-25T04:25:17.300Z,35.36
2019-02-25T04:26:17.399Z,35.37
2019-02-25T04:27:19.027Z,35.38
2019-02-25T04:28:17.932Z,35.34
2019-02-25T04:29:17.629Z,35.39
2019-02-25T04:30:17.652Z,35.34
2019-02-25T04:31:16.974Z,35.32
2019-02-25T04:32:17.844Z,35.35
2019-02-25T04:33:17.374Z,35.29
2019-02-25T04:34:18.961Z,35.3
2019-02-25T04:35:17.486Z,35.33
2019-02-25T04:36:16.976Z,35.35
2019-02-25T04:37:17.036Z,35.36
2019-02-25T04:38:17.122Z,35.32
2019-02-25T04:39:17.189Z,35.36
2019-02-25T04:40:16.964Z,35.38
2019-02-25T04:41:17.168Z,35.35
2019-02-25T04:42:17.692Z,35.36
2019-02-25T04:43:17.311Z,35.39
2019-02-25T04:44:17.325Z,35.42
2019-02-25T04:45:17.446Z,35.46
2019-02-25T04:46:17.662Z,35.49
2019-02-25T04:47:17.011Z,35.43
2019-02-25T04:48:17.062Z,35.43
2019-02-25T04:49:17.047Z,35.4
2019-02-25T04:50:17.147Z,35.41
2019-02-25T04:51:17.882Z,35.42
2019-02-25T04:52:18.182Z,35.34
2019-02-25T04:53:17.261Z,35.3
2019-02-25T04:54:17.402Z,35.38
2019-02-25T04:55:17.545Z,35.38
2019-02-25T04:56:16.997Z,35.54
2019-02-25T04:57:17.266Z,35.5
2019-02-25T04:58:17.403Z,35.56
2019-02-25T04:59:17.102Z,35.45
2019-02-25T05:00:18.415Z,35.47
2019-02-25T05:01:17.432Z,35.64
2019-02-25T05:02:17.358Z,35.64
2019-02-25T05:03:19.030Z,35.65
2019-02-25T05:04:17.482Z,35.54
2019-02-25T05:05:17.272Z,35.64
2019-02-25T05:06:17.803Z,35.48
2019-02-25T05:07:17.145Z,35.52
2019-02-25T05:08:17.120Z,35.48
2019-02-25T05:09:17.840Z,35.47
2019-02-25T05:10:17.074Z,35.48
2019-02-25T05:11:17.747Z,35.49
2019-02-25T05:12:18.068Z,35.46
2019-02-25T05:13:18.045Z,35.36
2019-02-25T05:14:17.304Z,35.34
2019-02-25T05:15:17.233Z,35.43
2019-02-25T05:16:17.538Z,35.43
2019-02-25T05:17:17.001Z,35.44
2019-02-25T05:18:18.084Z,35.47
2019-02-25T05:19:17.445Z,35.46
2019-02-25T05:20:17.372Z,35.43
2019-02-25T05:21:17.275Z,35.41
2019-02-25T05:22:17.376Z,35.45
2019-02-25T05:23:17.477Z,35.44
2019-02-25T05:24:17.204Z,35.42
2019-02-25T05:25:17.739Z,35.44
2019-02-25T05:26:17.347Z,35.49
2019-02-25T05:27:17.390Z,35.48
2019-02-25T05:28:17.461Z,35.46
2019-02-25T05:29:17.442Z,35.47
2019-02-25T05:30:17.273Z,35.48
2019-02-25T05:31:17.116Z,35.47
2019-02-25T05:32:17.772Z,35.46
2019-02-25T05:33:17.933Z,35.46
2019-02-25T05:34:18.403Z,35.39
2019-02-25T05:35:16.871Z,35.49
2019-02-25T05:36:18.938Z,35.49
2019-02-25T05:37:17.488Z,35.51
2019-02-25T05:38:17.146Z,35.48
2019-02-25T05:39:17.312Z,35.51
2019-02-25T05:40:17.406Z,35.47
2019-02-25T05:41:17.393Z,35.54
2019-02-25T05:42:17.660Z,35.47
2019-02-25T05:43:18.652Z,35.51
2019-02-25T05:44:16.982Z,35.52
2019-02-25T05:45:17.053Z,35.53
2019-02-25T05:46:17.223Z,35.48
2019-02-25T05:47:17.258Z,35.52
2019-02-25T05:48:17.030Z,35.52
2019-02-25T05:49:17.286Z,35.58
2019-02-25T05:50:17.402Z,35.51
2019-02-25T05:51:17.404Z,35.48
2019-02-25T05:52:17.515Z,35.34
2019-02-25T05:53:17.209Z,35.42
2019-02-25T05:54:17.505Z,35.5
2019-02-25T05:55:16.902Z,35.45
2019-02-25T05:56:17.618Z,35.48
2019-02-25T05:57:17.869Z,35.49
2019-02-25T05:58:16.905Z,35.44
2019-02-25T05:59:17.444Z,35.44
2019-02-25T06:00:17.390Z,35.45
2019-02-25T06:01:17.123Z,33.21
2019-02-25T06:02:17.275Z,31.64
2019-02-25T06:03:17.686Z,30.93
2019-02-25T06:04:17.266Z,30.16
2019-02-25T06:05:17.397Z,29.65
2019-02-25T06:06:17.052Z,29.27
2019-02-25T06:07:17.201Z,28.48
2019-02-25T06:08:17.036Z,28.52
2019-02-25T06:09:17.730Z,28.36
2019-02-25T06:10:17.065Z,27.61
2019-02-25T06:11:17.440Z,27.58
2019-02-25T06:12:17.782Z,27.46
2019-02-25T06:13:16.974Z,27.39
2019-02-25T06:14:18.074Z,28.07
2019-02-25T06:15:17.162Z,28.93
2019-02-25T06:16:17.318Z,29.21
2019-02-25T06:17:17.677Z,29.6
2019-02-25T06:18:18.819Z,29.78
2019-02-25T06:19:17.111Z,30
2019-02-25T06:20:17.380Z,30.46
2019-02-25T06:21:17.332Z,30.55
2019-02-25T06:22:16.979Z,30.42
2019-02-25T06:23:19.018Z,30.64
2019-02-25T06:24:17.046Z,30.7
2019-02-25T06:25:17.386Z,30.9
2019-02-25T06:26:17.240Z,31
2019-02-25T06:27:17.245Z,31.14
2019-02-25T06:28:17.202Z,31.23
2019-02-25T06:29:16.901Z,31.23
2019-02-25T06:30:17.383Z,31.37
2019-02-25T06:31:17.374Z,31.44
2019-02-25T06:32:17.483Z,31.54
2019-02-25T06:33:17.628Z,31.64
2019-02-25T06:34:17.246Z,31.68
2019-02-25T06:35:17.011Z,31.7
2019-02-25T06:36:18.946Z,31.86
2019-02-25T06:37:19.019Z,31.93
2019-02-25T06:38:17.140Z,31.95
2019-02-25T06:39:18.161Z,32
2019-02-25T06:40:18.864Z,32.06
2019-02-25T06:41:16.889Z,32.17
2019-02-25T06:42:17.107Z,32.15
2019-02-25T06:43:18.815Z,32.17
2019-02-25T06:44:17.320Z,32.22
2019-02-25T06:45:17.412Z,32.24
2019-02-25T06:46:17.008Z,32.29
2019-02-25T06:47:17.180Z,32.29
2019-02-25T06:48:18.622Z,32.4
2019-02-25T06:49:16.989Z,32.49
2019-02-25T06:50:17.060Z,32.49
2019-02-25T06:51:17.603Z,32.58
2019-02-25T06:52:17.275Z,32.61
2019-02-25T06:53:17.088Z,32.55
2019-02-25T06:54:17.729Z,32.67
2019-02-25T06:55:17.237Z,32.67
2019-02-25T06:56:17.275Z,32.68
2019-02-25T06:57:18.812Z,32.73
2019-02-25T06:58:17.123Z,32.72
2019-02-25T06:59:17.045Z,32.78
2019-02-25T07:00:17.112Z,32.77
2019-02-25T07:01:17.599Z,32.86
2019-02-25T07:02:17.098Z,32.85
2019-02-25T07:03:17.281Z,32.92
2019-02-25T07:04:17.028Z,32.9
2019-02-25T07:05:17.539Z,32.91
2019-02-25T07:06:17.395Z,32.82
2019-02-25T07:07:16.903Z,32.97
2019-02-25T07:08:17.343Z,32.94
2019-02-25T07:09:17.181Z,32.97
2019-02-25T07:10:17.121Z,33.05
2019-02-25T07:11:17.232Z,33.08
2019-02-25T07:12:17.287Z,33.13
2019-02-25T07:13:17.061Z,33.08
2019-02-25T07:14:17.271Z,33.18
2019-02-25T07:15:17.383Z,33.25
2019-02-25T07:16:17.184Z,33.26
2019-02-25T07:17:17.111Z,33.09
2019-02-25T07:18:17.157Z,33.22
2019-02-25T07:19:16.839Z,33.11
2019-02-25T07:20:16.923Z,33.22
2019-02-25T07:21:16.986Z,33.26
2019-02-25T07:22:17.639Z,33.27
2019-02-25T07:23:18.049Z,33.36
2019-02-25T07:24:16.933Z,33.36
2019-02-25T07:25:17.040Z,33.42
2019-02-25T07:26:17.359Z,33.42
2019-02-25T07:27:16.871Z,33.45
2019-02-25T07:28:17.029Z,33.27
2019-02-25T07:29:17.357Z,33.46
2019-02-25T07:30:17.373Z,33.52
2019-02-25T07:31:17.297Z,33.43
2019-02-25T07:32:17.494Z,33.52
2019-02-25T07:33:16.918Z,33.5
2019-02-25T07:34:17.402Z,33.48
2019-02-25T07:35:17.321Z,33.5
2019-02-25T07:36:17.935Z,33.53
2019-02-25T07:37:18.215Z,33.38
2019-02-25T07:38:17.332Z,33.48
2019-02-25T07:39:16.957Z,33.59
2019-02-25T07:40:17.358Z,33.6
2019-02-25T07:41:17.346Z,33.42
2019-02-25T07:42:17.045Z,33.59
2019-02-25T07:43:17.417Z,33.56
2019-02-25T07:44:17.900Z,33.49
2019-02-25T07:45:17.279Z,33.56
2019-02-25T07:46:17.595Z,33.58
2019-02-25T07:47:17.491Z,33.67
2019-02-25T07:48:17.091Z,33.54
2019-02-25T07:49:17.526Z,33.46
2019-02-25T07:50:17.433Z,33.65
2019-02-25T07:51:17.120Z,33.64
2019-02-25T07:52:17.218Z,33.67
2019-02-25T07:53:17.726Z,33.57
2019-02-25T07:54:17.383Z,33.6
2019-02-25T07:55:18.999Z,33.59
2019-02-25T07:56:17.253Z,33.6
2019-02-25T07:57:18.867Z,33.62
2019-02-25T07:58:17.363Z,33.69
2019-02-25T07:59:16.896Z,33.61
2019-02-25T08:00:17.133Z,33.7
2019-02-25T08:01:17.456Z,33.72
2019-02-25T08:02:17.294Z,33.66
2019-02-25T08:03:17.317Z,33.61
2019-02-25T08:04:17.336Z,33.61
2019-02-25T08:05:18.024Z,33.66
2019-02-25T08:06:18.842Z,33.59
2019-02-25T08:07:16.970Z,33.48
2019-02-25T08:08:17.458Z,33.61
2019-02-25T08:09:16.970Z,33.63
2019-02-25T08:10:17.092Z,33.58
2019-02-25T08:11:17.125Z,33.68
2019-02-25T08:12:17.280Z,33.64
2019-02-25T08:13:16.902Z,33.65
2019-02-25T08:14:17.295Z,33.7
2019-02-25T08:15:16.900Z,33.57
2019-02-25T08:16:16.812Z,33.49
2019-02-25T08:17:17.211Z,33.56
2019-02-25T08:18:17.611Z,33.69
2019-02-25T08:19:16.789Z,33.66
2019-02-25T08:20:17.539Z,33.7
2019-02-25T08:21:17.117Z,33.64
2019-02-25T08:22:18.720Z,33.74
2019-02-25T08:23:17.549Z,33.75
2019-02-25T08:24:17.294Z,33.62
2019-02-25T08:25:17.387Z,33.75
2019-02-25T08:26:17.378Z,33.76
2019-02-25T08:27:18.113Z,33.66
2019-02-25T08:28:17.551Z,33.75
2019-02-25T08:29:17.158Z,33.68
2019-02-25T08:30:17.510Z,33.66
2019-02-25T08:31:18.768Z,33.69
2019-02-25T08:32:17.110Z,33.71
2019-02-25T08:33:17.069Z,33.7
2019-02-25T08:34:19.251Z,33.73
2019-02-25T08:35:17.169Z,33.72
2019-02-25T08:36:16.876Z,33.7
2019-02-25T08:37:17.303Z,33.75
2019-02-25T08:38:17.244Z,33.71
2019-02-25T08:39:18.154Z,33.74
2019-02-25T08:40:17.023Z,33.74
2019-02-25T08:41:17.119Z,33.74
2019-02-25T08:42:17.072Z,33.8
2019-02-25T08:43:17.318Z,33.92
2019-02-25T08:44:17.460Z,34.11
2019-02-25T08:45:17.310Z,34.06
2019-02-25T08:46:17.162Z,34.2
2019-02-25T08:47:17.313Z,34.2
2019-02-25T08:48:17.261Z,34.35
2019-02-25T08:49:18.244Z,34.41
2019-02-25T08:50:17.856Z,34.55
2019-02-25T08:51:17.241Z,34.55
2019-02-25T08:52:17.156Z,34.64
2019-02-25T08:53:17.049Z,34.77
2019-02-25T08:54:17.426Z,34.84
2019-02-25T08:55:17.182Z,34.86
2019-02-25T08:56:17.358Z,34.95
2019-02-25T08:57:16.992Z,34.97
2019-02-25T08:58:18.386Z,34.95
2019-02-25T08:59:17.171Z,34.95
2019-02-25T09:00:16.849Z,34.96
2019-02-25T09:01:17.128Z,34.9
2019-02-25T09:02:17.228Z,35.01
2019-02-25T09:03:16.926Z,34.87
2019-02-25T09:04:17.154Z,34.94
2019-02-25T09:05:17.403Z,35.15
2019-02-25T09:06:17.162Z,34.96
2019-02-25T09:07:16.907Z,34.89
2019-02-25T09:08:17.888Z,34.95
2019-02-25T09:09:17.324Z,35.04
2019-02-25T09:10:17.428Z,35
2019-02-25T09:11:16.920Z,35.09
2019-02-25T09:12:18.337Z,35.05
2019-02-25T09:13:17.159Z,35.09
2019-02-25T09:14:16.935Z,34.92
2019-02-25T09:15:17.401Z,34.71
2019-02-25T09:16:17.198Z,34.86
2019-02-25T09:17:17.245Z,34.88
2019-02-25T09:18:16.900Z,34.97
2019-02-25T09:19:17.042Z,34.78
2019-02-25T09:20:17.051Z,34.87
2019-02-25T09:21:16.986Z,34.76
2019-02-25T09:22:16.976Z,34.93
2019-02-25T09:23:17.490Z,34.82
2019-02-25T09:24:18.959Z,34.81
2019-02-25T09:25:16.864Z,34.76
2019-02-25T09:26:17.406Z,34.87
2019-02-25T09:27:17.906Z,34.85
2019-02-25T09:28:17.107Z,34.81
2019-02-25T09:29:17.335Z,34.96
2019-02-25T09:30:17.162Z,34.88
2019-02-25T09:31:16.976Z,34.87
2019-02-25T09:32:19.309Z,34.93
2019-02-25T09:33:18.168Z,35
2019-02-25T09:34:17.254Z,35.16
2019-02-25T09:35:18.982Z,35.1
2019-02-25T09:36:17.401Z,35.29
2019-02-25T09:37:17.340Z,35.31
2019-02-25T09:38:17.259Z,35.21
2019-02-25T09:39:17.082Z,35.2
2019-02-25T09:40:17.066Z,35.16
2019-02-25T09:41:17.470Z,35.32
2019-02-25T09:42:17.009Z,35.04
2019-02-25T09:43:17.241Z,35.28
2019-02-25T09:44:17.870Z,35.08
2019-02-25T09:45:16.934Z,34.96
2019-02-25T09:46:17.137Z,35.09
2019-02-25T09:47:17.653Z,35.04
2019-02-25T09:48:18.842Z,35.09
2019-02-25T09:49:17.081Z,34.93
2019-02-25T09:50:16.946Z,35.09
2019-02-25T09:51:17.070Z,35.26
2019-02-25T09:52:16.901Z,35.13
2019-02-25T09:53:17.077Z,35.82
2019-02-25T09:54:17.931Z,35.26
2019-02-25T09:55:16.987Z,34.92
2019-02-25T09:56:16.974Z,34.92
2019-02-25T09:57:16.898Z,35
2019-02-25T09:58:16.886Z,35.5
2019-02-25T09:59:17.330Z,35.2
2019-02-25T10:00:17.235Z,34.97
2019-02-25T10:01:16.886Z,35.12
2019-02-25T10:02:17.259Z,35.21
2019-02-25T10:03:16.922Z,35.36
2019-02-25T10:04:17.018Z,35.34
2019-02-25T10:05:17.112Z,35.17
2019-02-25T10:06:17.065Z,35.23
2019-02-25T10:07:17.297Z,35.26
2019-02-25T10:08:17.537Z,35.32
2019-02-25T10:09:17.071Z,35.33
2019-02-25T10:10:17.196Z,35.31
2019-02-25T10:11:17.506Z,35.23
2019-02-25T10:12:16.940Z,35.27
2019-02-25T10:13:17.009Z,35.28
2019-02-25T10:14:16.767Z,35.24
2019-02-25T10:15:18.282Z,35.11
2019-02-25T10:16:18.860Z,35.12
2019-02-25T10:17:24.163Z,35.22
2019-02-25T10:18:17.068Z,35.21
2019-02-25T10:19:17.282Z,35.21
2019-02-25T10:20:17.434Z,35.19
2019-02-25T10:21:17.064Z,35.13
2019-02-25T10:22:17.199Z,35.32
2019-02-25T10:23:16.884Z,35.24
2019-02-25T10:24:16.955Z,35.43
2019-02-25T10:25:17.180Z,35.51
2019-02-25T10:26:16.840Z,35.52
2019-02-25T10:27:17.354Z,35.43
2019-02-25T10:28:17.663Z,35.3
2019-02-25T10:29:16.964Z,35.4
2019-02-25T10:30:16.965Z,35.31
2019-02-25T10:31:17.665Z,35.36
2019-02-25T10:32:17.055Z,35.55
2019-02-25T10:33:16.937Z,35.28
2019-02-25T10:34:18.198Z,35.35
2019-02-25T10:35:17.961Z,35.19
2019-02-25T10:36:17.310Z,35.2
2019-02-25T10:37:17.825Z,35.27
2019-02-25T10:38:21.624Z,35.64
2019-02-25T10:39:19.885Z,35.42
2019-02-25T10:40:24.497Z,35.23
2019-02-25T10:41:21.184Z,35.34
2019-02-25T10:42:17.015Z,35.35
2019-02-25T10:43:17.082Z,35.6
2019-02-25T10:44:16.925Z,35.35
2019-02-25T10:45:17.122Z,35.34
2019-02-25T10:46:17.937Z,35.3
2019-02-25T10:47:21.382Z,35.25
2019-02-25T10:48:21.484Z,35.32
2019-02-25T10:49:17.030Z,35.3
2019-02-25T10:50:17.156Z,35.37
2019-02-25T10:51:17.367Z,35.29
2019-02-25T10:52:17.610Z,35.3
2019-02-25T10:53:20.402Z,35.44
2019-02-25T10:54:21.152Z,35.34
2019-02-25T10:55:16.864Z,35.32
2019-02-25T10:56:22.012Z,35.26
2019-02-25T10:57:16.920Z,35.18
2019-02-25T10:58:17.250Z,35.43
2019-02-25T10:59:17.869Z,35.12
2019-02-25T11:00:16.936Z,35.37
2019-02-25T11:01:21.780Z,35.36
2019-02-25T11:02:19.533Z,35.39
2019-02-25T11:03:21.262Z,35.31
2019-02-25T11:04:20.076Z,35.31
2019-02-25T11:05:20.679Z,35.33
2019-02-25T11:06:16.887Z,35.31
2019-02-25T11:07:16.921Z,35.24
2019-02-25T11:08:17.394Z,35.43
2019-02-25T11:09:18.247Z,35.27
2019-02-25T11:10:20.321Z,35.32
2019-02-25T11:11:21.031Z,35.34
2019-02-25T11:12:17.360Z,35.46
2019-02-25T11:13:17.130Z,35.5
2019-02-25T11:14:16.968Z,35.5
2019-02-25T11:15:17.241Z,35.25
2019-02-25T11:16:20.492Z,35.42
2019-02-25T11:17:22.397Z,35.47
2019-02-25T11:18:20.329Z,35.29
2019-02-25T11:19:16.708Z,35.42
2019-02-25T11:20:17.635Z,35.58
2019-02-25T11:21:16.922Z,35.47
2019-02-25T11:22:17.128Z,35.3
2019-02-25T11:23:21.422Z,35.23
2019-02-25T11:24:22.401Z,35.22
2019-02-25T11:25:21.370Z,35.36
2019-02-25T11:26:16.855Z,35.28
2019-02-25T11:27:18.791Z,35.34
2019-02-25T11:28:26.145Z,34.73
2019-02-25T11:29:17.225Z,35
2019-02-25T11:30:20.757Z,34.81
2019-02-25T11:31:24.431Z,34.97
2019-02-25T11:32:19.905Z,34.98
2019-02-25T11:33:16.947Z,34.98
2019-02-25T11:34:17.329Z,34.89
2019-02-25T11:35:17.025Z,34.96
2019-02-25T11:36:21.416Z,34.98
2019-02-25T11:37:21.726Z,34.9
2019-02-25T11:38:17.049Z,34.88
2019-02-25T11:39:17.152Z,35.08
2019-02-25T11:40:18.133Z,34.99
2019-02-25T11:41:17.068Z,35.03
2019-02-25T11:42:20.784Z,35.1
2019-02-25T11:43:21.660Z,34.92
2019-02-25T11:44:20.693Z,35.12
2019-02-25T11:45:18.740Z,34.73
2019-02-25T11:46:17.303Z,35.15
2019-02-25T11:47:16.977Z,35.08
2019-02-25T11:48:18.764Z,35.08
2019-02-25T11:49:17.305Z,35.18
2019-02-25T11:50:17.708Z,35.01
2019-02-25T11:51:17.139Z,35.28
2019-02-25T11:52:17.481Z,35.34
2019-02-25T11:53:16.896Z,34.99
2019-02-25T11:54:17.063Z,35.12
2019-02-25T11:55:17.276Z,35.06
2019-02-25T11:56:16.945Z,35.31
2019-02-25T11:57:17.914Z,35.45
2019-02-25T11:58:17.258Z,35.19
2019-02-25T11:59:17.262Z,34.96
2019-02-25T12:00:17.168Z,35.19
2019-02-25T12:01:17.015Z,35.14
2019-02-25T12:02:26.111Z,35.27
2019-02-25T12:03:17.544Z,35.4
2019-02-25T12:04:17.208Z,35.32
2019-02-25T12:05:16.908Z,35.24
2019-02-25T12:06:17.421Z,35.16
2019-02-25T12:07:17.418Z,35.41
2019-02-25T12:08:17.050Z,34.95
2019-02-25T12:09:18.780Z,35.15
2019-02-25T12:10:17.132Z,35.02
2019-02-25T12:11:17.094Z,35.1
2019-02-25T12:12:16.969Z,35.16
2019-02-25T12:13:17.499Z,34.98
2019-02-25T12:14:17.851Z,35.47
2019-02-25T12:15:18.706Z,35.2
2019-02-25T12:16:17.185Z,34.93
2019-02-25T12:17:17.173Z,34.99
2019-02-25T12:18:17.111Z,35.12
2019-02-25T12:19:18.473Z,34.93
2019-02-25T12:20:17.101Z,35.19
2019-02-25T12:21:16.886Z,35.22
2019-02-25T12:22:17.243Z,35.05
2019-02-25T12:23:17.419Z,35.29
2019-02-25T12:24:17.044Z,35.1
2019-02-25T12:25:17.910Z,35.22
2019-02-25T12:26:16.738Z,35.38
2019-02-25T12:27:17.159Z,35.26
2019-02-25T12:28:17.108Z,35.34
2019-02-25T12:29:17.069Z,35.45
2019-02-25T12:30:17.152Z,35.29
2019-02-25T12:31:17.494Z,35.14
2019-02-25T12:32:17.311Z,35.26
2019-02-25T12:33:16.972Z,35.54
2019-02-25T12:34:17.197Z,35.14
2019-02-25T12:35:16.839Z,34.96
2019-02-25T12:36:16.774Z,34.86
2019-02-25T12:37:16.982Z,34.82
2019-02-25T12:38:17.658Z,34.87
2019-02-25T12:39:17.339Z,34.8
2019-02-25T12:40:17.093Z,34.89
2019-02-25T12:41:16.846Z,34.84
2019-02-25T12:42:17.098Z,34.85
2019-02-25T12:43:16.823Z,35.04
2019-02-25T12:44:18.774Z,35.16
2019-02-25T12:45:16.816Z,35.14
2019-02-25T12:46:17.750Z,35.19
2019-02-25T12:47:17.933Z,35.16
2019-02-25T12:48:17.249Z,35.3
2019-02-25T12:49:17.840Z,35.2
2019-02-25T12:50:17.111Z,34.99
2019-02-25T12:51:17.117Z,35.06
2019-02-25T12:52:16.941Z,35.14
2019-02-25T12:53:17.155Z,35.26
2019-02-25T12:54:17.364Z,35.25
2019-02-25T12:55:17.080Z,35.23